Lord Nelson — GHJV — position and weather

sailwx.info

Track history (hours):
 
Tides and Currents Weather Stations Pressure Air Temp Water Temp Dewpoint Dewpoint Depression Visibility Wind Speed Wind Dir Waves Ship Positions

Lord Nelson (United Kingdom)

Ship's website: http://www.jst.org.uk/

Last reported at 2016-Jun-26 22:06 UTC. Time now 2016-Jun-27 02:22 UTC.
Position N 50°35' W 005°46'.

Length 54.7 m; beam 9 m; draft 4.1 m.

Type: Sailing vessel. MMSI: 232003690.

Date/timePositionNaut miles runAvg speedWind from/ knotsBaromVisibWave heightAir tempDewpointWater temp
2016-Jun-26 22:06N 50°35' W 005°46'3 5.5
2016-Jun-26 21:31N 50°37' W 005°43'5 4.9
2016-Jun-26 20:30N 50°41' W 005°37'4 4.1
2016-Jun-26 19:32N 50°44' W 005°33'7 7.1
2016-Jun-26 18:33N 50°51' W 005°35'7 7.2
2016-Jun-26 17:32N 50°58' W 005°37'69 5.3
2016-Jun-26 04:25N 52°07' W 005°49'5 5.2
2016-Jun-26 03:32N 52°11' W 005°49'4989.9
2016-Jun-26 03:00N 53°00' W 005°48'45102.2 320 / 121020.4 5.4 0.513.011.113.4
2016-Jun-26 02:33N 52°15' W 005°49'3 3.1
2016-Jun-26 01:33N 52°19' W 005°49'2 2.5
2016-Jun-26 00:34N 52°21' W 005°48'3 2.7
2016-Jun-25 23:34N 52°24' W 005°48'2 2.0
2016-Jun-25 22:33N 52°26' W 005°48'2 3.0
2016-Jun-25 22:00N 52°24' W 005°48'4 8.5 310 / 141021.610.8 0.514.011.813.9
2016-Jun-25 21:30N 52°28' W 005°49'3 3.2
2016-Jun-25 20:33N 52°31' W 005°49'35 6.3
2016-Jun-25 15:00N 53°06' W 005°54'31 0.7 300 / 101020.0 5.4 0.516.914.515.4
2016-Jun-23 21:00N 53°36' W 005°42'14 9.5 180 / 41014.5 5.4 0.515.013.216.6
2016-Jun-23 19:33N 53°50' W 005°43'8 7.6
2016-Jun-23 18:33N 53°57' W 005°40'7 7.0
2016-Jun-23 17:33N 54°04' W 005°37'916.3
2016-Jun-23 17:00N 54°12' W 005°30'3 6.6 150 / 161014.110.8 0.515.912.814.7
2016-Jun-23 16:33N 54°10' W 005°33'6 6.1
2016-Jun-23 15:33N 54°16' W 005°31'6 6.1
2016-Jun-23 14:33N 54°22' W 005°33'5 4.8
2016-Jun-23 13:33N 54°26' W 005°35'5 5.0
2016-Jun-23 12:33N 54°31' W 005°37'0 0.0
2016-Jun-23 11:33N 54°31' W 005°38'0 0.0
2016-Jun-23 10:33N 54°31' W 005°38'3 2.5
2016-Jun-23 09:33N 54°29' W 005°36'7 6.7
2016-Jun-23 08:33N 54°23' W 005°33'5 5.3
2016-Jun-23 07:33N 54°18' W 005°29'6 2.9
2016-Jun-23 05:33N 54°22' W 005°22'4 7.3
2016-Jun-23 05:00N 54°18' W 005°18'715.6 999 / 21016.3 5.4 12.110.213.1
2016-Jun-23 04:33N 54°25' W 005°20'6 5.8
2016-Jun-23 03:33N 54°30' W 005°20'5 4.7
2016-Jun-23 02:33N 54°35' W 005°20'2 2.8
2016-Jun-23 02:00N 54°36' W 005°18'4 8.8 220 / 91015.810.8 0.512.010.912.7
2016-Jun-23 01:33N 54°39' W 005°21'5 5.0
2016-Jun-23 00:33N 54°44' W 005°23'6 6.2
2016-Jun-22 23:33N 54°50' W 005°25'8 7.5
2016-Jun-22 22:33N 54°57' W 005°21'7 7.4
2016-Jun-22 21:33N 55°04' W 005°16'5 9.2
2016-Jun-22 21:00N 55°00' W 005°12'31 7.7 180 / 171015.510.8 0.513.012.613.8
2016-Jun-22 17:00N 55°30' W 005°00'3 6.4 190 / 171014.6 5.4 0.516.011.715.0
2016-Jun-22 16:33N 55°33' W 005°01'17 0.8
2016-Jun-21 18:19N 55°50' W 004°57'4 5.9
2016-Jun-21 17:34N 55°54' W 004°56'6 5.8
2016-Jun-21 16:33N 55°58' W 004°48'2 2.2
2016-Jun-21 15:32N 55°57' W 004°45'0 0.0
2016-Jun-21 14:32N 55°57' W 004°45'0 0.0
2016-Jun-21 13:32N 55°57' W 004°45'0 0.0
2016-Jun-21 12:32N 55°57' W 004°45'  
2016-Jun-17 15:07N 55°17' W 005°45'4 6.6
2016-Jun-17 14:33N 55°18' W 005°51'7 6.8
2016-Jun-17 13:33N 55°24' W 005°57'6 6.0
2016-Jun-17 12:33N 55°28' W 006°04'1 0.9
2016-Jun-17 11:33N 55°29' W 006°04'3 2.6
2016-Jun-17 10:33N 55°31' W 006°07'3 3.0
2016-Jun-17 09:33N 55°34' W 006°10'4 3.3
2016-Jun-17 08:20N 55°38' W 006°11'0 0.0
2016-Jun-17 07:23N 55°38' W 006°11'0 0.0
2016-Jun-17 06:26N 55°38' W 006°11'0 0.0
2016-Jun-17 05:26N 55°38' W 006°11'0 0.0
2016-Jun-17 04:29N 55°38' W 006°11'0 0.0
2016-Jun-17 03:29N 55°38' W 006°11'0 0.0
2016-Jun-17 02:26N 55°38' W 006°11'0 0.0
2016-Jun-17 01:14N 55°38' W 006°11'0 0.0
2016-Jun-17 00:29N 55°38' W 006°11'0 0.0
2016-Jun-16 23:29N 55°38' W 006°11'0 0.0
2016-Jun-16 22:32N 55°38' W 006°11'  
Track history (hours):
 
Tides and Currents Weather Stations Pressure Air Temp Water Temp Dewpoint Dewpoint Depression Visibility Wind Speed Wind Dir Waves Ship Positions

Lord Nelson (United Kingdom)

Ship's website: http://www.jst.org.uk/

Last reported at 2016-Jun-26 22:06 UTC. Time now 2016-Jun-27 02:22 UTC.
Position N 50°35' W 005°46'.

Length 54.7 m; beam 9 m; draft 4.1 m.

Type: Sailing vessel. MMSI: 232003690.

Date/timePositionNaut miles runAvg speedWind from/ knotsBaromVisibWave heightAir tempDewpointWater temp
2016-Jun-26 22:06N 50°35' W 005°46'3 5.5
2016-Jun-26 21:31N 50°37' W 005°43'5 4.9
2016-Jun-26 20:30N 50°41' W 005°37'4 4.1
2016-Jun-26 19:32N 50°44' W 005°33'7 7.1
2016-Jun-26 18:33N 50°51' W 005°35'7 7.2
2016-Jun-26 17:32N 50°58' W 005°37'69 5.3
2016-Jun-26 04:25N 52°07' W 005°49'5 5.2
2016-Jun-26 03:32N 52°11' W 005°49'4989.9
2016-Jun-26 03:00N 53°00' W 005°48'45102.2 320 / 121020.4 5.4 0.513.011.113.4
2016-Jun-26 02:33N 52°15' W 005°49'3 3.1
2016-Jun-26 01:33N 52°19' W 005°49'2 2.5
2016-Jun-26 00:34N 52°21' W 005°48'3 2.7
2016-Jun-25 23:34N 52°24' W 005°48'2 2.0
2016-Jun-25 22:33N 52°26' W 005°48'2 3.0
2016-Jun-25 22:00N 52°24' W 005°48'4 8.5 310 / 141021.610.8 0.514.011.813.9
2016-Jun-25 21:30N 52°28' W 005°49'3 3.2
2016-Jun-25 20:33N 52°31' W 005°49'35 6.3
2016-Jun-25 15:00N 53°06' W 005°54'31 0.7 300 / 101020.0 5.4 0.516.914.515.4
2016-Jun-23 21:00N 53°36' W 005°42'14 9.5 180 / 41014.5 5.4 0.515.013.216.6
2016-Jun-23 19:33N 53°50' W 005°43'8 7.6
2016-Jun-23 18:33N 53°57' W 005°40'7 7.0
2016-Jun-23 17:33N 54°04' W 005°37'916.3
2016-Jun-23 17:00N 54°12' W 005°30'3 6.6 150 / 161014.110.8 0.515.912.814.7
2016-Jun-23 16:33N 54°10' W 005°33'6 6.1
2016-Jun-23 15:33N 54°16' W 005°31'6 6.1
2016-Jun-23 14:33N 54°22' W 005°33'5 4.8
2016-Jun-23 13:33N 54°26' W 005°35'5 5.0
2016-Jun-23 12:33N 54°31' W 005°37'0 0.0
2016-Jun-23 11:33N 54°31' W 005°38'0 0.0
2016-Jun-23 10:33N 54°31' W 005°38'3 2.5
2016-Jun-23 09:33N 54°29' W 005°36'7 6.7
2016-Jun-23 08:33N 54°23' W 005°33'5 5.3
2016-Jun-23 07:33N 54°18' W 005°29'6 2.9
2016-Jun-23 05:33N 54°22' W 005°22'4 7.3
2016-Jun-23 05:00N 54°18' W 005°18'715.6 999 / 21016.3 5.4 12.110.213.1
2016-Jun-23 04:33N 54°25' W 005°20'6 5.8
2016-Jun-23 03:33N 54°30' W 005°20'5 4.7
2016-Jun-23 02:33N 54°35' W 005°20'2 2.8
2016-Jun-23 02:00N 54°36' W 005°18'4 8.8 220 / 91015.810.8 0.512.010.912.7
2016-Jun-23 01:33N 54°39' W 005°21'5 5.0
2016-Jun-23 00:33N 54°44' W 005°23'6 6.2
2016-Jun-22 23:33N 54°50' W 005°25'8 7.5
2016-Jun-22 22:33N 54°57' W 005°21'7 7.4
2016-Jun-22 21:33N 55°04' W 005°16'5 9.2
2016-Jun-22 21:00N 55°00' W 005°12'31 7.7 180 / 171015.510.8 0.513.012.613.8
2016-Jun-22 17:00N 55°30' W 005°00'3 6.4 190 / 171014.6 5.4 0.516.011.715.0
2016-Jun-22 16:33N 55°33' W 005°01'17 0.8
2016-Jun-21 18:19N 55°50' W 004°57'4 5.9
2016-Jun-21 17:34N 55°54' W 004°56'6 5.8
2016-Jun-21 16:33N 55°58' W 004°48'2 2.2
2016-Jun-21 15:32N 55°57' W 004°45'0 0.0
2016-Jun-21 14:32N 55°57' W 004°45'0 0.0
2016-Jun-21 13:32N 55°57' W 004°45'0 0.0
2016-Jun-21 12:32N 55°57' W 004°45'  
2016-Jun-17 15:07N 55°17' W 005°45'4 6.6
2016-Jun-17 14:33N 55°18' W 005°51'7 6.8
2016-Jun-17 13:33N 55°24' W 005°57'6 6.0
2016-Jun-17 12:33N 55°28' W 006°04'1 0.9
2016-Jun-17 11:33N 55°29' W 006°04'3 2.6
2016-Jun-17 10:33N 55°31' W 006°07'3 3.0
2016-Jun-17 09:33N 55°34' W 006°10'4 3.3
2016-Jun-17 08:20N 55°38' W 006°11'0 0.0
2016-Jun-17 07:23N 55°38' W 006°11'0 0.0
2016-Jun-17 06:26N 55°38' W 006°11'0 0.0
2016-Jun-17 05:26N 55°38' W 006°11'0 0.0
2016-Jun-17 04:29N 55°38' W 006°11'0 0.0
2016-Jun-17 03:29N 55°38' W 006°11'0 0.0
2016-Jun-17 02:26N 55°38' W 006°11'0 0.0
2016-Jun-17 01:14N 55°38' W 006°11'0 0.0
2016-Jun-17 00:29N 55°38' W 006°11'0 0.0
2016-Jun-16 23:29N 55°38' W 006°11'0 0.0
2016-Jun-16 22:32N 55°38' W 006°11'  

Dump ship's entire track history